Time;durP1;ratioP1;P1;durP2;ratioP2;P2;SDS_P1;SDS_P2;PMS_P1;PMS_P2;Temp;Humidity;BMP_temperature;BMP_pressure;BME280_temperature;BME280_humidity;BME280_pressure;Samples;Min_cycle;Max_cycle;Signal;HPM_P1;HPM_P2
2021/12/26 00:00:42;;;;;;;;;;;;;;;;;;4917873;29;19933;-83
2021/12/26 00:03:08;;;;;;;;;;;;;;;;;;4929614;28;20231;-83
2021/12/26 00:05:37;;;;;;;;;;;;;;;;;;4929241;28;19929;-84
2021/12/26 00:08:03;;;;;;;;;;;;;;;;;;4942536;28;19922;-83
2021/12/26 00:10:29;;;;;;;;;;;;;;;;;;4928486;28;19926;-83
2021/12/26 00:12:57;;;;;;;;;;;;;;;;;;4935022;28;19922;-83
2021/12/26 00:15:23;;;;;;;;;;;;;;;;;;4926473;28;19934;-83
2021/12/26 00:17:49;;;;;;;;;;;;;;;;;;4928402;28;19966;-83
2021/12/26 00:20:15;;;;;;;;;;;;;;;;;;4910927;28;20025;-82
2021/12/26 00:22:41;;;;;;;;;;;;;;;;;;4915630;28;20478;-83
2021/12/26 00:25:07;;;;;;;;;;;;;;;;;;4930657;28;19938;-82
2021/12/26 00:27:33;;;;;;;;;;;;;;;;;;4909363;28;19926;-82
2021/12/26 00:29:59;;;;;;;;;;;;;;;;;;4935576;28;20392;-83
2021/12/26 00:32:25;;;;;;;;;;;;;;;;;;4927482;28;20849;-83
2021/12/26 00:34:51;;;;;;;;;;;;;;;;;;4927303;28;19930;-83
2021/12/26 00:37:17;;;;;;;;;;;;;;;;;;4925516;28;19932;-83
2021/12/26 00:39:43;;;;;;;;;;;;;;;;;;4912826;28;20255;-83
2021/12/26 00:42:09;;;;;;;;;;;;;;;;;;4928339;28;20057;-83
2021/12/26 00:44:39;;;;;;;;;;;;;;;;;;4927368;28;19945;-83
2021/12/26 00:47:05;;;;;;;;;;;;;;;;;;4938559;28;20618;-82
2021/12/26 00:49:31;;;;;;;;;;;;;;;;;;4909279;28;19923;-82
2021/12/26 00:51:57;;;;;;;;;;;;;;;;;;4944288;28;19919;-83
2021/12/26 00:54:23;;;;;;;;;;;;;;;;;;4926284;28;20308;-83
2021/12/26 00:56:49;;;;;;;;;;;;;;;;;;4931316;28;19927;-82
2021/12/26 00:59:19;;;;;;;;;;;;;;;;;;4925139;28;19919;-82
2021/12/26 01:01:44;;;;;;;;;;;;;;;;;;4926089;28;20450;-83
2021/12/26 01:04:13;;;;;;;;;;;;;;;;;;4939563;28;20009;-82
2021/12/26 01:06:39;;;;;;;;;;;;;;;;;;4915488;28;19926;-82
2021/12/26 01:09:10;;;;;;;;;;;;;;;;;;4929295;28;19973;-82
2021/12/26 01:11:46;;;;;;;;;;;;;;;;;;4934865;28;20323;-82
2021/12/26 01:14:12;;;;;;;;;;;;;;;;;;4928004;28;19918;-83
2021/12/26 01:16:38;;;;;;;;;;;;;;;;;;4925557;28;20436;-83
2021/12/26 01:19:16;;;;;;;;;;;;;;;;;;4943375;28;20378;-83
2021/12/26 01:21:42;;;;;;;;;;;;;;;;;;4926222;28;19918;-82
2021/12/26 01:24:11;;;;;;;;;;;;;;;;;;4929063;28;20043;-82
2021/12/26 01:26:37;;;;;;;;;;;;;;;;;;4935110;28;19922;-82
2021/12/26 01:29:03;;;;;;;;;;;;;;;;;;4926259;28;19931;-82
2021/12/26 01:31:29;;;;;;;;;;;;;;;;;;4922409;28;20000;-82
2021/12/26 01:33:55;;;;;;;;;;;;;;;;;;4929534;28;20279;-82
2021/12/26 01:36:21;;;;;;;;;;;;;;;;;;4925524;28;19980;-82
2021/12/26 01:38:49;;;;;;;;;;;;;;;;;;4930748;28;20631;-82
2021/12/26 01:41:17;;;;;;;;;;;;;;;;;;4927886;28;20314;-82
2021/12/26 01:43:45;;;;;;;;;;;;;;;;;;4916706;28;19923;-82
2021/12/26 01:46:14;;;;;;;;;;;;;;;;;;4922018;28;19965;-82
2021/12/26 01:48:40;;;;;;;;;;;;;;;;;;4930972;28;19989;-82
2021/12/26 01:51:06;;;;;;;;;;;;;;;;;;4926763;28;19918;-82
2021/12/26 01:53:40;;;;;;;;;;;;;;;;;;4927983;28;19922;-82
2021/12/26 01:56:06;;;;;;;;;;;;;;;;;;4928748;28;20381;-82
2021/12/26 01:58:32;;;;;;;;;;;;;;;;;;4923581;28;19927;-82
2021/12/26 02:00:58;;;;;;;;;;;;;;;;;;4924457;28;19926;-82
2021/12/26 02:03:24;;;;;;;;;;;;;;;;;;4924624;28;20329;-82
2021/12/26 02:05:50;;;;;;;;;;;;;;;;;;4927541;28;19934;-82
2021/12/26 02:08:16;;;;;;;;;;;;;;;;;;4911811;28;20046;-82
2021/12/26 02:10:42;;;;;;;;;;;;;;;;;;4946368;28;20350;-82
2021/12/26 02:13:08;;;;;;;;;;;;;;;;;;4920373;28;19926;-82
2021/12/26 02:15:34;;;;;;;;;;;;;;;;;;4918691;28;20227;-82
2021/12/26 02:18:00;;;;;;;;;;;;;;;;;;4922052;28;19933;-82
2021/12/26 02:20:33;;;;;;;;;;;;;;;;;;4918444;28;19926;-82
2021/12/26 02:23:07;;;;;;;;;;;;;;;;;;4925640;28;19923;-82
2021/12/26 02:28:12;;;;;;;;;;;;;;;;;;4926402;28;20025;-82
2021/12/26 02:30:38;;;;;;;;;;;;;;;;;;4931567;28;20048;-82
2021/12/26 02:33:07;;;;;;;;;;;;;;;;;;4940662;28;19919;-81
2021/12/26 02:35:34;;;;;;;;;;;;;;;;;;4913801;28;19949;-82
2021/12/26 02:38:00;;;;;;;;;;;;;;;;;;4925646;28;19922;-81
2021/12/26 02:40:26;;;;;;;;;;;;;;;;;;4924065;28;19924;-82
2021/12/26 02:42:51;;;;;;;;;;;;;;;;;;4927493;28;19934;-82
2021/12/26 02:45:17;;;;;;;;;;;;;;;;;;4925698;28;19930;-81
2021/12/26 02:47:43;;;;;;;;;;;;;;;;;;4925258;28;20292;-82
2021/12/26 02:50:27;;;;;;;;;;;;;;;;;;4943663;28;19934;-81
2021/12/26 02:52:53;;;;;;;;;;;;;;;;;;4936369;28;20409;-81
2021/12/26 02:55:19;;;;;;;;;;;;;;;;;;4929642;28;19922;-82
2021/12/26 02:57:45;;;;;;;;;;;;;;;;;;4929141;28;19922;-81
2021/12/26 03:00:11;;;;;;;;;;;;;;;;;;4928367;28;19922;-82
2021/12/26 03:02:37;;;;;;;;;;;;;;;;;;4926073;28;19922;-82
2021/12/26 03:05:03;;;;;;;;;;;;;;;;;;4911469;28;19923;-82
2021/12/26 03:07:29;;;;;;;;;;;;;;;;;;4925876;28;20007;-81
2021/12/26 03:09:59;;;;;;;;;;;;;;;;;;4927874;28;20385;-81
2021/12/26 03:12:25;;;;;;;;;;;;;;;;;;4927608;28;20602;-82
2021/12/26 03:14:51;;;;;;;;;;;;;;;;;;4929269;28;19922;-82
2021/12/26 03:17:17;;;;;;;;;;;;;;;;;;4939658;28;19930;-81
2021/12/26 03:19:45;;;;;;;;;;;;;;;;;;4932981;28;19930;-82
2021/12/26 03:22:11;;;;;;;;;;;;;;;;;;4927071;28;19918;-81
2021/12/26 03:24:39;;;;;;;;;;;;;;;;;;4944269;28;19926;-81
2021/12/26 03:27:05;;;;;;;;;;;;;;;;;;4933310;28;20315;-81
2021/12/26 03:29:31;;;;;;;;;;;;;;;;;;4926860;28;20002;-83
2021/12/26 03:31:57;;;;;;;;;;;;;;;;;;4925216;28;19918;-81
2021/12/26 03:34:23;;;;;;;;;;;;;;;;;;4941556;28;19926;-81
2021/12/26 03:36:52;;;;;;;;;;;;;;;;;;4914490;28;19955;-81
2021/12/26 03:39:18;;;;;;;;;;;;;;;;;;4939534;28;19918;-81
2021/12/26 03:41:44;;;;;;;;;;;;;;;;;;4918526;28;19929;-81
2021/12/26 03:44:10;;;;;;;;;;;;;;;;;;4929619;28;19929;-82
2021/12/26 03:46:36;;;;;;;;;;;;;;;;;;4913223;28;20309;-81
2021/12/26 03:49:04;;;;;;;;;;;;;;;;;;4934723;28;19944;-81
2021/12/26 03:51:30;;;;;;;;;;;;;;;;;;4925356;28;19945;-81
2021/12/26 03:53:57;;;;;;;;;;;;;;;;;;4929553;28;20006;-81
2021/12/26 03:56:22;;;;;;;;;;;;;;;;;;4922400;28;19933;-81
2021/12/26 03:58:48;;;;;;;;;;;;;;;;;;4928396;28;19926;-81
2021/12/26 04:01:15;;;;;;;;;;;;;;;;;;4937069;28;20072;-81
2021/12/26 04:03:41;;;;;;;;;;;;;;;;;;4928464;28;19930;-81
2021/12/26 04:06:07;;;;;;;;;;;;;;;;;;4929258;28;20013;-81
2021/12/26 04:08:33;;;;;;;;;;;;;;;;;;4912947;28;19918;-79
2021/12/26 04:10:59;;;;;;;;;;;;;;;;;;4922330;29;20381;-80
2021/12/26 04:13:25;;;;;;;;;;;;;;;;;;4926910;28;20262;-80
2021/12/26 04:15:51;;;;;;;;;;;;;;;;;;4931089;28;19918;-80
2021/12/26 04:18:17;;;;;;;;;;;;;;;;;;4909393;28;20041;-80
2021/12/26 04:20:43;;;;;;;;;;;;;;;;;;4917316;28;20001;-80
2021/12/26 04:23:09;;;;;;;;;;;;;;;;;;4926030;28;19926;-80
2021/12/26 04:25:35;;;;;;;;;;;;;;;;;;4913844;29;19930;-80
2021/12/26 04:28:00;;;;;;;;;;;;;;;;;;4927132;28;19931;-79
2021/12/26 04:30:26;;;;;;;;;;;;;;;;;;4924353;28;19969;-80
2021/12/26 04:32:52;;;;;;;;;;;;;;;;;;4915291;28;19919;-80
2021/12/26 04:35:19;;;;;;;;;;;;;;;;;;4915429;28;19922;-80
2021/12/26 04:37:44;;;;;;;;;;;;;;;;;;4931013;28;20031;-80
2021/12/26 04:40:10;;;;;;;;;;;;;;;;;;4927144;28;20076;-80
2021/12/26 04:42:38;;;;;;;;;;;;;;;;;;4928683;28;20000;-79
2021/12/26 04:45:05;;;;;;;;;;;;;;;;;;4929042;28;19933;-80
2021/12/26 04:47:31;;;;;;;;;;;;;;;;;;4911628;28;20481;-80
2021/12/26 04:49:57;;;;;;;;;;;;;;;;;;4920601;29;19964;-80
2021/12/26 04:52:23;;;;;;;;;;;;;;;;;;4906586;28;19923;-80
2021/12/26 04:54:49;;;;;;;;;;;;;;;;;;4932130;28;19930;-80
2021/12/26 04:57:15;;;;;;;;;;;;;;;;;;4910691;28;19926;-81
2021/12/26 04:59:41;;;;;;;;;;;;;;;;;;4918818;29;20008;-81
2021/12/26 05:02:09;;;;;;;;;;;;;;;;;;4939018;28;20140;-80
2021/12/26 05:04:34;;;;;;;;;;;;;;;;;;4915820;28;19931;-80
2021/12/26 05:07:00;;;;;;;;;;;;;;;;;;4928566;28;20013;-80
2021/12/26 05:09:26;;;;;;;;;;;;;;;;;;4925043;28;19930;-81
2021/12/26 05:11:53;;;;;;;;;;;;;;;;;;4927626;28;21671;-80
2021/12/26 05:14:19;;;;;;;;;;;;;;;;;;4912245;28;20072;-80
2021/12/26 05:16:45;;;;;;;;;;;;;;;;;;4934196;28;20016;-80
2021/12/26 05:19:11;;;;;;;;;;;;;;;;;;4922173;28;20483;-80
2021/12/26 05:21:37;;;;;;;;;;;;;;;;;;4924813;28;20293;-80
2021/12/26 05:24:03;;;;;;;;;;;;;;;;;;4940019;28;19969;-79
2021/12/26 05:26:29;;;;;;;;;;;;;;;;;;4926171;28;20381;-81
2021/12/26 05:28:55;;;;;;;;;;;;;;;;;;4926651;28;19922;-80
2021/12/26 05:31:21;;;;;;;;;;;;;;;;;;4925428;28;20313;-81
2021/12/26 05:33:47;;;;;;;;;;;;;;;;;;4925818;28;19969;-80
2021/12/26 05:36:13;;;;;;;;;;;;;;;;;;4922454;28;19969;-80
2021/12/26 05:38:39;;;;;;;;;;;;;;;;;;4940870;28;19922;-81
2021/12/26 05:41:05;;;;;;;;;;;;;;;;;;4930715;28;20527;-80
2021/12/26 05:43:31;;;;;;;;;;;;;;;;;;4922808;28;20112;-80
2021/12/26 05:45:57;;;;;;;;;;;;;;;;;;4932339;28;20112;-81
2021/12/26 05:48:23;;;;;;;;;;;;;;;;;;4924779;28;19970;-81
2021/12/26 05:50:49;;;;;;;;;;;;;;;;;;4929421;28;19970;-79
2021/12/26 05:53:15;;;;;;;;;;;;;;;;;;4920035;28;19931;-80
2021/12/26 05:55:41;;;;;;;;;;;;;;;;;;4931826;28;19964;-80
2021/12/26 05:58:06;;;;;;;;;;;;;;;;;;4916001;28;19923;-80
2021/12/26 06:00:32;;;;;;;;;;;;;;;;;;4926491;28;19926;-80
2021/12/26 06:02:58;;;;;;;;;;;;;;;;;;4931344;28;19919;-80
2021/12/26 06:05:24;;;;;;;;;;;;;;;;;;4910991;28;19937;-80
2021/12/26 06:07:50;;;;;;;;;;;;;;;;;;4932029;28;19922;-80
2021/12/26 06:10:16;;;;;;;;;;;;;;;;;;4925905;28;19927;-80
2021/12/26 06:12:42;;;;;;;;;;;;;;;;;;4932510;28;19929;-81
2021/12/26 06:15:08;;;;;;;;;;;;;;;;;;4915561;28;19932;-77
2021/12/26 06:17:35;;;;;;;;;;;;;;;;;;4927830;28;19972;-80
2021/12/26 06:20:01;;;;;;;;;;;;;;;;;;4929952;28;19965;-81
2021/12/26 06:22:27;;;;;;;;;;;;;;;;;;4927494;28;20009;-80
2021/12/26 06:24:53;;;;;;;;;;;;;;;;;;4930112;28;19973;-80
2021/12/26 06:27:18;;;;;;;;;;;;;;;;;;4922448;28;19931;-80
2021/12/26 06:29:44;;;;;;;;;;;;;;;;;;4925908;28;19926;-81
2021/12/26 06:32:10;;;;;;;;;;;;;;;;;;4921563;28;19923;-81
2021/12/26 06:34:36;;;;;;;;;;;;;;;;;;4939536;28;19963;-82
2021/12/26 06:37:02;;;;;;;;;;;;;;;;;;4937522;28;19963;-81
2021/12/26 06:39:28;;;;;;;;;;;;;;;;;;4911350;28;23517;-81
2021/12/26 06:41:54;;;;;;;;;;;;;;;;;;4928897;28;20006;-79
2021/12/26 06:44:20;;;;;;;;;;;;;;;;;;4925604;28;20226;-80
2021/12/26 06:46:46;;;;;;;;;;;;;;;;;;4921532;28;20362;-80
2021/12/26 06:49:12;;;;;;;;;;;;;;;;;;4922765;28;19926;-82
2021/12/26 06:51:38;;;;;;;;;;;;;;;;;;4940882;28;19922;-81
2021/12/26 06:54:04;;;;;;;;;;;;;;;;;;4940542;28;19925;-80
2021/12/26 06:56:30;;;;;;;;;;;;;;;;;;4909802;28;20389;-81
2021/12/26 06:58:56;;;;;;;;;;;;;;;;;;4926797;28;20278;-80
2021/12/26 07:01:22;;;;;;;;;;;;;;;;;;4929168;28;19918;-81
2021/12/26 07:03:48;;;;;;;;;;;;;;;;;;4910871;29;20401;-81
2021/12/26 07:06:14;;;;;;;;;;;;;;;;;;4923254;28;19934;-80
2021/12/26 07:08:40;;;;;;;;;;;;;;;;;;4929754;28;19922;-81
2021/12/26 07:11:06;;;;;;;;;;;;;;;;;;4930010;28;19918;-80
2021/12/26 07:13:32;;;;;;;;;;;;;;;;;;4921293;28;19930;-81
2021/12/26 07:15:58;;;;;;;;;;;;;;;;;;4927178;28;19923;-81
2021/12/26 07:18:24;;;;;;;;;;;;;;;;;;4931924;28;20341;-81
2021/12/26 07:20:50;;;;;;;;;;;;;;;;;;4926841;28;19919;-82
2021/12/26 07:23:16;;;;;;;;;;;;;;;;;;4922304;28;19951;-82
2021/12/26 07:25:42;;;;;;;;;;;;;;;;;;4927937;28;19946;-81
2021/12/26 07:28:08;;;;;;;;;;;;;;;;;;4925579;28;20001;-81
2021/12/26 07:30:34;;;;;;;;;;;;;;;;;;4928178;28;20338;-82
2021/12/26 07:33:00;;;;;;;;;;;;;;;;;;4926533;28;19993;-80
2021/12/26 07:35:26;;;;;;;;;;;;;;;;;;4925436;28;20297;-82
2021/12/26 07:37:55;;;;;;;;;;;;;;;;;;4931587;28;19961;-82
2021/12/26 07:40:21;;;;;;;;;;;;;;;;;;4924598;28;19933;-82
2021/12/26 07:42:47;;;;;;;;;;;;;;;;;;4928362;28;19922;-83
2021/12/26 07:45:13;;;;;;;;;;;;;;;;;;4929918;28;20293;-84
2021/12/26 07:47:41;;;;;;;;;;;;;;;;;;4933607;28;19927;-82
2021/12/26 07:50:07;;;;;;;;;;;;;;;;;;4918121;28;19922;-82
2021/12/26 07:52:38;;;;;;;;;;;;;;;;;;4935433;28;21296;-83
2021/12/26 07:55:04;;;;;;;;;;;;;;;;;;4931374;28;20347;-80
2021/12/26 07:57:30;;;;;;;;;;;;;;;;;;4931260;28;19939;-82
2021/12/26 07:59:56;;;;;;;;;;;;;;;;;;4929573;28;20456;-82
2021/12/26 08:02:24;;;;;;;;;;;;;;;;;;4930927;28;20051;-82
2021/12/26 08:04:50;;;;;;;;;;;;;;;;;;4927499;28;20420;-82
2021/12/26 08:07:16;;;;;;;;;;;;;;;;;;4929560;28;19998;-83
2021/12/26 08:09:42;;;;;;;;;;;;;;;;;;4926191;28;20005;-83
2021/12/26 08:12:08;;;;;;;;;;;;;;;;;;4943375;28;19926;-82
2021/12/26 08:14:34;;;;;;;;;;;;;;;;;;4928954;28;19922;-83
2021/12/26 08:17:01;;;;;;;;;;;;;;;;;;4933417;28;19933;-82
2021/12/26 08:19:37;;;;;;;;;;;;;;;;;;4924686;28;19927;-82
2021/12/26 08:22:03;;;;;;;;;;;;;;;;;;4923065;28;20960;-83
2021/12/26 08:24:29;;;;;;;;;;;;;;;;;;4916542;28;20025;-82
2021/12/26 08:26:55;;;;;;;;;;;;;;;;;;4934122;28;19938;-82
2021/12/26 08:29:23;;;;;;;;;;;;;;;;;;4936783;28;19937;-81
2021/12/26 08:31:49;;;;;;;;;;;;;;;;;;4943022;28;20069;-81
2021/12/26 08:34:19;;;;;;;;;;;;;;;;;;4929533;28;19918;-84
2021/12/26 08:36:48;;;;;;;;;;;;;;;;;;4927920;28;19925;-83
2021/12/26 08:39:14;;;;;;;;;;;;;;;;;;4928902;28;19970;-84
2021/12/26 08:41:40;;;;;;;;;;;;;;;;;;4925174;28;19918;-80
2021/12/26 08:44:06;;;;;;;;;;;;;;;;;;4928541;28;19978;-81
2021/12/26 08:46:33;;;;;;;;;;;;;;;;;;4931423;28;19936;-81
2021/12/26 08:48:59;;;;;;;;;;;;;;;;;;4925288;28;19927;-82
2021/12/26 08:51:25;;;;;;;;;;;;;;;;;;4926498;28;20314;-82
2021/12/26 08:53:51;;;;;;;;;;;;;;;;;;4923514;28;19926;-82
2021/12/26 08:56:17;;;;;;;;;;;;;;;;;;4927387;28;20261;-82
2021/12/26 08:58:43;;;;;;;;;;;;;;;;;;4927868;28;20320;-82
2021/12/26 09:01:12;;;;;;;;;;;;;;;;;;4937191;28;19931;-80
2021/12/26 09:03:38;;;;;;;;;;;;;;;;;;4930650;28;19933;-81
2021/12/26 09:06:04;;;;;;;;;;;;;;;;;;4941933;28;20530;-81
2021/12/26 09:08:30;;;;;;;;;;;;;;;;;;4921945;28;20458;-80
2021/12/26 09:10:56;;;;;;;;;;;;;;;;;;4929312;28;19927;-80
2021/12/26 09:13:22;;;;;;;;;;;;;;;;;;4924093;28;19966;-79
2021/12/26 09:15:48;;;;;;;;;;;;;;;;;;4927599;28;19931;-81
2021/12/26 09:18:16;;;;;;;;;;;;;;;;;;4926299;28;20519;-82
2021/12/26 09:20:42;;;;;;;;;;;;;;;;;;4942151;28;19962;-83
2021/12/26 09:23:08;;;;;;;;;;;;;;;;;;4941637;28;19933;-83
2021/12/26 09:25:38;;;;;;;;;;;;;;;;;;4934505;28;19926;-81
2021/12/26 09:28:05;;;;;;;;;;;;;;;;;;4943445;28;19930;-82
2021/12/26 09:30:31;;;;;;;;;;;;;;;;;;4930971;28;20255;-83
2021/12/26 09:32:57;;;;;;;;;;;;;;;;;;4918666;28;20460;-81
2021/12/26 09:35:23;;;;;;;;;;;;;;;;;;4909293;28;20314;-81
2021/12/26 09:37:49;;;;;;;;;;;;;;;;;;4923311;28;19914;-84
2021/12/26 09:40:15;;;;;;;;;;;;;;;;;;4922765;28;19932;-83
2021/12/26 09:42:41;;;;;;;;;;;;;;;;;;4932491;28;19918;-84
2021/12/26 09:45:09;;;;;;;;;;;;;;;;;;4925999;28;19937;-83
2021/12/26 09:47:37;;;;;;;;;;;;;;;;;;4911429;28;20553;-83
2021/12/26 09:50:03;;;;;;;;;;;;;;;;;;4932298;28;19980;-82
2021/12/26 09:55:21;;;;;;;;;;;;;;;;;;4922880;28;19954;-84
2021/12/26 09:57:47;;;;;;;;;;;;;;;;;;4928924;28;21399;-83
2021/12/26 10:00:13;;;;;;;;;;;;;;;;;;4939712;28;19989;-84
2021/12/26 10:02:39;;;;;;;;;;;;;;;;;;4938185;28;19965;-83
2021/12/26 10:05:05;;;;;;;;;;;;;;;;;;4929022;28;20072;-84
2021/12/26 10:07:32;;;;;;;;;;;;;;;;;;4912016;28;19922;-84
2021/12/26 10:09:58;;;;;;;;;;;;;;;;;;4924311;28;20083;-84
2021/12/26 10:12:25;;;;;;;;;;;;;;;;;;4922134;28;20065;-85
2021/12/26 10:14:50;;;;;;;;;;;;;;;;;;4925284;28;19950;-82
2021/12/26 10:17:19;;;;;;;;;;;;;;;;;;4926524;28;19918;-83
2021/12/26 10:19:45;;;;;;;;;;;;;;;;;;4913694;29;19922;-82
2021/12/26 10:22:11;;;;;;;;;;;;;;;;;;4928580;28;19973;-83
2021/12/26 10:24:37;;;;;;;;;;;;;;;;;;4939418;28;19922;-83
2021/12/26 10:27:04;;;;;;;;;;;;;;;;;;4917210;28;20471;-83
2021/12/26 10:29:34;;;;;;;;;;;;;;;;;;4929507;28;19938;-83
2021/12/26 10:32:00;;;;;;;;;;;;;;;;;;4922052;28;20279;-82
2021/12/26 10:34:26;;;;;;;;;;;;;;;;;;4923757;28;20408;-83
2021/12/26 10:36:52;;;;;;;;;;;;;;;;;;4931501;28;19922;-83
2021/12/26 10:39:18;;;;;;;;;;;;;;;;;;4928478;28;20373;-82
2021/12/26 10:41:44;;;;;;;;;;;;;;;;;;4917735;29;19930;-82
2021/12/26 10:44:13;;;;;;;;;;;;;;;;;;4921442;28;19922;-84
2021/12/26 10:46:39;;;;;;;;;;;;;;;;;;4912614;28;19969;-84
2021/12/26 10:49:05;;;;;;;;;;;;;;;;;;4915925;28;19922;-85
2021/12/26 10:51:31;;;;;;;;;;;;;;;;;;4911959;28;20013;-84
2021/12/26 10:53:57;;;;;;;;;;;;;;;;;;4928312;28;20607;-84
2021/12/26 10:56:23;;;;;;;;;;;;;;;;;;4928859;28;19923;-84
2021/12/26 10:58:49;;;;;;;;;;;;;;;;;;4912475;28;19918;-83
2021/12/26 11:01:15;;;;;;;;;;;;;;;;;;4927292;28;20000;-82
2021/12/26 11:03:41;;;;;;;;;;;;;;;;;;4932002;28;19970;-82
2021/12/26 11:06:07;;;;;;;;;;;;;;;;;;4931258;28;20044;-82
2021/12/26 11:08:33;;;;;;;;;;;;;;;;;;4923999;28;20095;-83
2021/12/26 11:10:59;;;;;;;;;;;;;;;;;;4931048;28;19930;-82
2021/12/26 11:13:25;;;;;;;;;;;;;;;;;;4941911;28;19926;-82
2021/12/26 11:15:51;;;;;;;;;;;;;;;;;;4945773;28;20005;-82
2021/12/26 11:18:17;;;;;;;;;;;;;;;;;;4913377;28;19927;-82
2021/12/26 11:20:43;;;;;;;;;;;;;;;;;;4927579;28;20235;-82
2021/12/26 11:23:10;;;;;;;;;;;;;;;;;;4913662;28;19980;-83
2021/12/26 11:25:36;;;;;;;;;;;;;;;;;;4940616;28;20005;-83
2021/12/26 11:28:01;;;;;;;;;;;;;;;;;;4937498;28;20363;-83
2021/12/26 11:30:27;;;;;;;;;;;;;;;;;;4931163;28;19973;-82
2021/12/26 11:32:53;;;;;;;;;;;;;;;;;;4925391;28;19969;-83
2021/12/26 11:35:19;;;;;;;;;;;;;;;;;;4932585;28;20326;-83
2021/12/26 11:37:48;;;;;;;;;;;;;;;;;;4936697;28;20013;-83
2021/12/26 11:40:14;;;;;;;;;;;;;;;;;;4935299;28;19953;-83
2021/12/26 11:42:40;;;;;;;;;;;;;;;;;;4931303;28;19970;-83
2021/12/26 11:45:11;;;;;;;;;;;;;;;;;;4955201;28;20344;-83
2021/12/26 11:47:40;;;;;;;;;;;;;;;;;;4932346;28;19930;-83
2021/12/26 11:50:07;;;;;;;;;;;;;;;;;;4930731;28;19978;-83
2021/12/26 11:52:33;;;;;;;;;;;;;;;;;;4934393;28;19933;-84
2021/12/26 11:54:59;;;;;;;;;;;;;;;;;;4924214;28;20008;-84
2021/12/26 11:57:25;;;;;;;;;;;;;;;;;;4950686;28;19937;-84
2021/12/26 12:02:43;;;;;;;;;;;;;;;;;;4943116;28;20373;-84
2021/12/26 12:05:09;;;;;;;;;;;;;;;;;;4936668;28;19933;-84
2021/12/26 12:07:35;;;;;;;;;;;;;;;;;;4945702;28;19918;-83
2021/12/26 12:10:01;;;;;;;;;;;;;;;;;;4941269;28;19941;-84
2021/12/26 12:12:27;;;;;;;;;;;;;;;;;;4919322;28;19927;-84
2021/12/26 12:14:53;;;;;;;;;;;;;;;;;;4944235;28;19937;-84
2021/12/26 12:17:19;;;;;;;;;;;;;;;;;;4953819;28;20369;-83
2021/12/26 12:19:45;;;;;;;;;;;;;;;;;;4934223;28;20249;-83
2021/12/26 12:22:11;;;;;;;;;;;;;;;;;;4930857;28;19933;-83
2021/12/26 12:24:37;;;;;;;;;;;;;;;;;;4935095;28;20401;-83
2021/12/26 12:27:03;;;;;;;;;;;;;;;;;;4924053;28;19922;-84
2021/12/26 12:29:29;;;;;;;;;;;;;;;;;;4941331;28;19931;-83
2021/12/26 12:31:55;;;;;;;;;;;;;;;;;;4926072;28;19933;-84
2021/12/26 12:34:21;;;;;;;;;;;;;;;;;;4948062;28;20409;-86
2021/12/26 12:36:47;;;;;;;;;;;;;;;;;;4941916;28;19998;-85
2021/12/26 12:39:13;;;;;;;;;;;;;;;;;;4933218;28;19918;-81
2021/12/26 12:41:39;;;;;;;;;;;;;;;;;;4937056;28;20377;-83
2021/12/26 12:44:06;;;;;;;;;;;;;;;;;;4929597;28;19926;-85
2021/12/26 12:46:32;;;;;;;;;;;;;;;;;;4928607;28;20341;-84
2021/12/26 12:48:58;;;;;;;;;;;;;;;;;;4933628;28;20345;-84
2021/12/26 12:51:24;;;;;;;;;;;;;;;;;;4934999;28;19926;-85
2021/12/26 12:53:50;;;;;;;;;;;;;;;;;;4929010;28;20266;-85
2021/12/26 12:56:16;;;;;;;;;;;;;;;;;;4914192;28;19922;-84
2021/12/26 12:58:42;;;;;;;;;;;;;;;;;;4929851;28;20354;-85
2021/12/26 13:01:08;;;;;;;;;;;;;;;;;;4924288;28;19922;-84
2021/12/26 13:03:36;;;;;;;;;;;;;;;;;;4940365;28;19942;-84
2021/12/26 13:06:02;;;;;;;;;;;;;;;;;;4936434;28;19930;-85
2021/12/26 13:08:28;;;;;;;;;;;;;;;;;;4924694;28;23630;-84
2021/12/26 13:10:54;;;;;;;;;;;;;;;;;;4931375;28;20646;-84
2021/12/26 13:13:21;;;;;;;;;;;;;;;;;;4928831;28;20016;-85
2021/12/26 13:15:48;;;;;;;;;;;;;;;;;;4932239;28;19926;-85
2021/12/26 13:18:14;;;;;;;;;;;;;;;;;;4949562;28;19973;-85
2021/12/26 13:20:40;;;;;;;;;;;;;;;;;;4909333;29;19962;-83
2021/12/26 13:23:06;;;;;;;;;;;;;;;;;;4923880;28;20286;-86
2021/12/26 13:25:32;;;;;;;;;;;;;;;;;;4920115;28;19930;-87
2021/12/26 13:28:01;;;;;;;;;;;;;;;;;;4925164;28;20026;-87
2021/12/26 13:30:27;;;;;;;;;;;;;;;;;;4934531;28;19922;-86
2021/12/26 13:32:53;;;;;;;;;;;;;;;;;;4929552;28;19933;-87
2021/12/26 13:35:19;;;;;;;;;;;;;;;;;;4915505;28;20870;-86
2021/12/26 13:37:45;;;;;;;;;;;;;;;;;;4932837;28;19918;-85
2021/12/26 13:40:11;;;;;;;;;;;;;;;;;;4939041;28;19923;-85
2021/12/26 13:42:55;;;;;;;;;;;;;;;;;;4920683;28;19962;-81
2021/12/26 13:48:23;;;;;;;;;;;;;;;;;;4933029;28;19972;-86
2021/12/26 13:50:55;;;;;;;;;;;;;;;;;;4930647;28;19919;-86
2021/12/26 13:53:24;;;;;;;;;;;;;;;;;;4920885;28;19930;-85
2021/12/26 13:55:55;;;;;;;;;;;;;;;;;;4905476;29;20254;-85
2021/12/26 13:58:28;;;;;;;;;;;;;;;;;;4926829;28;20337;-85
2021/12/26 14:00:55;;;;;;;;;;;;;;;;;;4935211;28;19922;-84
2021/12/26 14:03:28;;;;;;;;;;;;;;;;;;4911644;28;19923;-85
2021/12/26 14:05:58;;;;;;;;;;;;;;;;;;4921956;28;20357;-85
2021/12/26 14:08:27;;;;;;;;;;;;;;;;;;4934325;28;20460;-86
2021/12/26 14:11:03;;;;;;;;;;;;;;;;;;4934267;28;19926;-86
2021/12/26 14:13:32;;;;;;;;;;;;;;;;;;4916130;28;19930;-83
2021/12/26 14:16:01;;;;;;;;;;;;;;;;;;4926577;28;19918;-85
2021/12/26 14:18:38;;;;;;;;;;;;;;;;;;4933826;28;19937;-85
2021/12/26 14:21:16;;;;;;;;;;;;;;;;;;4928105;28;20860;-85
2021/12/26 14:23:42;;;;;;;;;;;;;;;;;;4922593;28;19922;-85
2021/12/26 14:26:11;;;;;;;;;;;;;;;;;;4932707;28;19946;-85
2021/12/26 14:28:40;;;;;;;;;;;;;;;;;;4917856;28;19923;-86
2021/12/26 14:31:06;;;;;;;;;;;;;;;;;;4933715;28;19981;-84
2021/12/26 14:33:32;;;;;;;;;;;;;;;;;;4921588;28;19968;-84
2021/12/26 14:35:58;;;;;;;;;;;;;;;;;;4922011;28;19970;-84
2021/12/26 14:38:24;;;;;;;;;;;;;;;;;;4923831;28;20317;-85
2021/12/26 14:40:50;;;;;;;;;;;;;;;;;;4943183;28;19930;-86
2021/12/26 14:43:16;;;;;;;;;;;;;;;;;;4926531;28;19918;-86
2021/12/26 14:45:42;;;;;;;;;;;;;;;;;;4928786;28;19988;-84
2021/12/26 14:48:08;;;;;;;;;;;;;;;;;;4925919;28;19933;-88
2021/12/26 14:50:34;;;;;;;;;;;;;;;;;;4914464;29;19971;-86
2021/12/26 14:53:02;;;;;;;;;;;;;;;;;;4929824;28;20031;-85
2021/12/26 14:55:29;;;;;;;;;;;;;;;;;;4929274;28;19961;-87
2021/12/26 14:58:08;;;;;;;;;;;;;;;;;;4916295;28;19925;-86
2021/12/26 15:00:34;;;;;;;;;;;;;;;;;;4918822;28;19967;-88
2021/12/26 15:03:00;;;;;;;;;;;;;;;;;;4916773;28;20057;-85
2021/12/26 15:05:27;;;;;;;;;;;;;;;;;;4918676;28;19922;-85
2021/12/26 15:07:53;;;;;;;;;;;;;;;;;;4902992;28;20493;-85
2021/12/26 15:10:19;;;;;;;;;;;;;;;;;;4912827;28;20094;-86
2021/12/26 15:12:45;;;;;;;;;;;;;;;;;;4902168;28;20480;-86
2021/12/26 15:15:11;;;;;;;;;;;;;;;;;;4898506;28;19964;-86
2021/12/26 15:17:37;;;;;;;;;;;;;;;;;;4921231;28;19958;-85
2021/12/26 15:20:03;;;;;;;;;;;;;;;;;;4923038;28;20397;-86
2021/12/26 15:22:29;;;;;;;;;;;;;;;;;;4928836;28;19933;-85
2021/12/26 15:24:57;;;;;;;;;;;;;;;;;;4932069;28;19996;-86
2021/12/26 15:27:23;;;;;;;;;;;;;;;;;;4903995;28;19966;-84
2021/12/26 15:29:49;;;;;;;;;;;;;;;;;;4907610;28;20309;-86
2021/12/26 15:32:15;;;;;;;;;;;;;;;;;;4911308;28;19925;-86
2021/12/26 15:34:41;;;;;;;;;;;;;;;;;;4899309;28;20026;-84
2021/12/26 15:37:08;;;;;;;;;;;;;;;;;;4929109;28;20866;-85
2021/12/26 15:39:34;;;;;;;;;;;;;;;;;;4914349;28;20013;-82
2021/12/26 15:42:02;;;;;;;;;;;;;;;;;;4913720;28;20385;-82
2021/12/26 15:44:28;;;;;;;;;;;;;;;;;;4927177;28;22263;-84
2021/12/26 15:46:54;;;;;;;;;;;;;;;;;;4943810;28;19925;-85
2021/12/26 15:49:20;;;;;;;;;;;;;;;;;;4941309;28;19925;-84
2021/12/26 15:51:46;;;;;;;;;;;;;;;;;;4929895;28;19930;-85
2021/12/26 15:54:13;;;;;;;;;;;;;;;;;;4924777;28;20070;-81
2021/12/26 15:56:40;;;;;;;;;;;;;;;;;;4928721;28;19989;-86
2021/12/26 15:59:12;;;;;;;;;;;;;;;;;;4914223;28;20274;-82
2021/12/26 16:01:38;;;;;;;;;;;;;;;;;;4927855;28;19927;-85
2021/12/26 16:04:10;;;;;;;;;;;;;;;;;;4923867;28;19927;-84
2021/12/26 16:06:36;;;;;;;;;;;;;;;;;;4946343;28;20354;-87
2021/12/26 16:09:07;;;;;;;;;;;;;;;;;;4929177;28;20009;-83
2021/12/26 16:11:33;;;;;;;;;;;;;;;;;;4925858;28;19920;-83
2021/12/26 16:13:59;;;;;;;;;;;;;;;;;;4928111;28;19918;-84
2021/12/26 16:16:25;;;;;;;;;;;;;;;;;;4925192;28;19998;-84
2021/12/26 16:18:50;;;;;;;;;;;;;;;;;;4929804;28;19962;-83
2021/12/26 16:21:16;;;;;;;;;;;;;;;;;;4926683;28;19966;-85
2021/12/26 16:23:42;;;;;;;;;;;;;;;;;;4928653;28;19974;-83
2021/12/26 16:26:11;;;;;;;;;;;;;;;;;;4924304;28;20424;-84
2021/12/26 16:28:39;;;;;;;;;;;;;;;;;;4934301;28;19930;-85
2021/12/26 16:31:05;;;;;;;;;;;;;;;;;;4925293;28;19974;-84
2021/12/26 16:33:31;;;;;;;;;;;;;;;;;;4926961;28;20064;-85
2021/12/26 16:35:57;;;;;;;;;;;;;;;;;;4930087;28;20353;-83
2021/12/26 16:38:23;;;;;;;;;;;;;;;;;;4927592;28;20061;-87
2021/12/26 16:40:49;;;;;;;;;;;;;;;;;;4919601;28;20008;-85
2021/12/26 16:43:15;;;;;;;;;;;;;;;;;;4928793;28;20119;-85
2021/12/26 16:45:41;;;;;;;;;;;;;;;;;;4936907;28;20046;-85
2021/12/26 16:48:07;;;;;;;;;;;;;;;;;;4948360;28;20365;-84
2021/12/26 16:50:35;;;;;;;;;;;;;;;;;;4926545;28;20425;-82
2021/12/26 16:53:01;;;;;;;;;;;;;;;;;;4925714;28;19926;-82